Pink Coral — 9HPY9 — position and weather

sailwx.info

Track history (hours):
 
Tides and Currents Weather Stations Pressure Air Temp Water Temp Dewpoint Dewpoint Depression Visibility Wind Speed Wind Dir Waves Ship Positions

Pink Coral

Last reported at 2016-May-03 19:32 UTC. Time now 2016-May-03 20:10 UTC.
Position N 51°55' E 004°13'.

Length 183 m; draft 12.4 m.

Type: Ship (hazmat cat A). MMSI: 249344000.

Date/timePositionNaut miles runAvg speedWind from/ knotsBaromVisibWave heightAir tempDewpointWater temp
2016-May-03 19:32N 51°55' E 004°13'0 0.0
2016-May-03 18:32N 51°55' E 004°13'0 0.0
2016-May-03 17:32N 51°55' E 004°13'0 0.0
2016-May-03 16:32N 51°55' E 004°13'0 0.0
2016-May-03 15:32N 51°55' E 004°13'0 0.0
2016-May-03 14:32N 51°55' E 004°13'0 0.0
2016-May-03 13:32N 51°55' E 004°13'0 0.0
2016-May-03 12:29N 51°55' E 004°13'0 0.0
2016-May-03 11:32N 51°55' E 004°13'0 0.0
2016-May-03 10:32N 51°55' E 004°13'0 0.0
2016-May-03 09:32N 51°55' E 004°13'0 0.0
2016-May-03 08:32N 51°55' E 004°13'0 0.0
2016-May-03 07:32N 51°55' E 004°13'0 0.0
2016-May-03 06:32N 51°55' E 004°13'0 0.0
2016-May-03 05:32N 51°55' E 004°13'0 0.0
2016-May-03 04:32N 51°55' E 004°13'0 0.0
2016-May-03 03:32N 51°55' E 004°13'0 0.0
2016-May-03 02:32N 51°55' E 004°13'0 0.0
2016-May-03 01:32N 51°55' E 004°13'0 0.0
2016-May-03 00:30N 51°55' E 004°13'2 1.6
2016-May-02 23:33N 51°56' E 004°11'9 9.3
2016-May-02 22:33N 52°00' E 003°57'7 7.4
2016-May-02 21:33N 52°02' E 003°46'2811.5
2016-May-02 19:10N 52°20' E 003°12'813.1
2016-May-02 18:33N 52°28' E 003°12'14812.1
2016-May-02 06:20N 54°42' E 004°59'1012.6
2016-May-02 05:32N 54°51' E 005°07'1212.5
2016-May-02 04:32N 55°02' E 005°17'3812.7
2016-May-02 01:32N 55°36' E 005°49'1312.8
2016-May-02 00:33N 55°47' E 005°59'18912.4
2016-May-01 09:21N 57°57' E 010°11'1012.8
2016-May-01 08:33N 58°01' E 010°28'1312.7
2016-May-01 07:33N 58°08' E 010°48'1212.3
2016-May-01 06:33N 58°15' E 011°07'9 8.9
2016-May-01 05:33N 58°19' E 011°22'3 2.8
2016-May-01 04:33N 58°21' E 011°26'0 0.0
2016-May-01 03:33N 58°21' E 011°26'0 0.0
2016-May-01 02:33N 58°21' E 011°26'0 0.0
2016-May-01 01:33N 58°21' E 011°26'0 0.0
2016-May-01 00:33N 58°21' E 011°26'0 0.0
2016-Apr-30 23:33N 58°21' E 011°26'0 0.0
2016-Apr-30 22:33N 58°21' E 011°26'0 0.0
2016-Apr-30 21:33N 58°21' E 011°26'0 0.0
2016-Apr-30 20:33N 58°21' E 011°26'0 0.0
2016-Apr-30 19:33N 58°21' E 011°26'0 0.0
2016-Apr-30 18:33N 58°21' E 011°26'0 0.0
2016-Apr-30 17:30N 58°21' E 011°26'0 0.0
2016-Apr-30 16:33N 58°21' E 011°26'0 0.0
2016-Apr-30 15:30N 58°21' E 011°26'0 0.0
2016-Apr-30 14:30N 58°21' E 011°26'0 0.0
2016-Apr-30 13:33N 58°21' E 011°26'0 0.0
2016-Apr-30 12:33N 58°21' E 011°26'0 0.0
2016-Apr-30 11:33N 58°21' E 011°26'0 0.0
2016-Apr-30 10:33N 58°21' E 011°26'0 0.0
2016-Apr-30 09:24N 58°21' E 011°26'0 0.0
2016-Apr-30 08:33N 58°21' E 011°26'0 0.0
2016-Apr-30 07:33N 58°21' E 011°26'0 0.0
2016-Apr-30 06:33N 58°21' E 011°26'0 0.0
2016-Apr-30 05:33N 58°21' E 011°26'0 0.0
2016-Apr-30 04:33N 58°21' E 011°26'0 0.0
2016-Apr-30 03:33N 58°21' E 011°26'0 0.0
2016-Apr-30 02:30N 58°21' E 011°26'0 0.0
2016-Apr-30 01:33N 58°21' E 011°26'0 0.0
2016-Apr-30 00:33N 58°21' E 011°26'0 0.0
2016-Apr-29 23:33N 58°21' E 011°26'0 0.0
2016-Apr-29 22:33N 58°21' E 011°26'0 0.0
2016-Apr-29 21:33N 58°21' E 011°26'0 0.0
2016-Apr-29 20:33N 58°21' E 011°26'0 0.0
2016-Apr-29 19:33N 58°21' E 011°26'0 0.0
2016-Apr-29 18:33N 58°21' E 011°26'0 0.0
2016-Apr-29 17:33N 58°21' E 011°26'0 0.0
2016-Apr-29 16:33N 58°21' E 011°26'0 0.0
2016-Apr-29 15:33N 58°21' E 011°26'0 0.0
2016-Apr-29 14:33N 58°21' E 011°26'0 0.0
2016-Apr-29 13:33N 58°21' E 011°26'0 0.0
2016-Apr-29 12:33N 58°21' E 011°26'5 5.4
2016-Apr-29 11:33N 58°18' E 011°18'7 6.9
2016-Apr-29 10:33N 58°12' E 011°11'1 1.0
2016-Apr-29 09:31N 58°11' E 011°10'0 0.0
2016-Apr-29 08:31N 58°11' E 011°10'0 0.0
2016-Apr-29 07:31N 58°11' E 011°10'0 0.0
2016-Apr-29 06:31N 58°11' E 011°10'0 0.0
2016-Apr-29 05:31N 58°11' E 011°10'0 0.0
2016-Apr-29 04:31N 58°11' E 011°10'0 0.0
2016-Apr-29 03:31N 58°11' E 011°10'0 0.0
2016-Apr-29 02:31N 58°11' E 011°10'0 0.0
2016-Apr-29 01:31N 58°11' E 011°10'0 0.0
2016-Apr-29 00:31N 58°11' E 011°10'0 0.0
2016-Apr-28 23:31N 58°11' E 011°10'0 0.1
2016-Apr-28 22:31N 58°11' E 011°10'0 0.1
2016-Apr-28 21:31N 58°11' E 011°10'0 0.0
2016-Apr-28 20:31N 58°11' E 011°10'0 0.0
2016-Apr-28 19:31N 58°11' E 011°10'0 0.0
2016-Apr-28 18:31N 58°11' E 011°10'0 0.0
2016-Apr-28 17:31N 58°11' E 011°10'0 0.0
2016-Apr-28 16:31N 58°11' E 011°10'0 0.0
2016-Apr-28 15:31N 58°11' E 011°10'0 0.0
2016-Apr-28 14:31N 58°11' E 011°10'0 0.0
2016-Apr-28 13:31N 58°11' E 011°10'0 0.0
2016-Apr-28 12:31N 58°11' E 011°10'0 0.0
2016-Apr-28 11:31N 58°11' E 011°10'0 0.0
2016-Apr-28 10:31N 58°11' E 011°10'0 0.0
2016-Apr-28 09:31N 58°11' E 011°10'0 0.0
2016-Apr-28 08:31N 58°11' E 011°09'0 0.0
2016-Apr-28 07:31N 58°11' E 011°09'0 0.1
2016-Apr-28 06:31N 58°11' E 011°10'0 0.1
2016-Apr-28 05:31N 58°11' E 011°10'0 0.0
2016-Apr-28 04:31N 58°11' E 011°10'0 0.0
2016-Apr-28 03:31N 58°11' E 011°10'0 0.0
2016-Apr-28 02:31N 58°11' E 011°10'0 0.0
2016-Apr-28 01:31N 58°11' E 011°10'0 0.0
2016-Apr-28 00:31N 58°11' E 011°10'0 0.0
2016-Apr-27 23:31N 58°11' E 011°10'0 0.0
2016-Apr-27 22:31N 58°11' E 011°10'0 0.1
2016-Apr-27 21:33N 58°11' E 011°09'0 0.1
2016-Apr-27 20:31N 58°11' E 011°09'0 0.0
2016-Apr-27 19:31N 58°11' E 011°09'0 0.0
2016-Apr-27 18:31N 58°11' E 011°09'0 0.1
2016-Apr-27 17:31N 58°11' E 011°10'0 0.0
2016-Apr-27 16:31N 58°11' E 011°10'0 0.0
2016-Apr-27 15:31N 58°11' E 011°09'0 0.0
2016-Apr-27 14:31N 58°11' E 011°09'0 0.1
2016-Apr-27 13:31N 58°11' E 011°09'0 0.1
2016-Apr-27 12:31N 58°11' E 011°09'0 0.1
2016-Apr-27 11:31N 58°11' E 011°09'0 0.1
2016-Apr-27 10:31N 58°11' E 011°10'0 0.0
2016-Apr-27 09:31N 58°11' E 011°10'0 0.0
2016-Apr-27 08:28N 58°11' E 011°09'0 0.1
2016-Apr-27 07:31N 58°11' E 011°09'0 0.0
2016-Apr-27 06:31N 58°11' E 011°09'0 0.0
2016-Apr-27 05:31N 58°11' E 011°09'0 0.0
2016-Apr-27 04:31N 58°11' E 011°09'0 0.0
2016-Apr-27 03:31N 58°11' E 011°09'0 0.0
2016-Apr-27 02:31N 58°11' E 011°09'0 0.0
2016-Apr-27 01:31N 58°11' E 011°09'0 0.0
2016-Apr-27 00:31N 58°11' E 011°09'0 0.0
2016-Apr-26 23:31N 58°11' E 011°09'0 0.0
2016-Apr-26 22:31N 58°11' E 011°09'0 0.0
2016-Apr-26 21:31N 58°11' E 011°09'0 0.0
2016-Apr-26 20:31N 58°11' E 011°09'0 0.0
2016-Apr-26 19:31N 58°11' E 011°09'0 0.0
2016-Apr-26 18:31N 58°11' E 011°09'0 0.0
2016-Apr-26 17:31N 58°11' E 011°09'0 0.0
2016-Apr-26 16:31N 58°11' E 011°09'0 0.0
2016-Apr-26 15:31N 58°11' E 011°09'0 0.0
2016-Apr-26 14:31N 58°11' E 011°09'0 0.0
2016-Apr-26 13:31N 58°11' E 011°09'0 0.0
2016-Apr-26 12:31N 58°11' E 011°09'0 0.0
2016-Apr-26 11:31N 58°11' E 011°09'0 0.0
2016-Apr-26 10:33N 58°11' E 011°09'0 0.0
2016-Apr-26 09:33N 58°11' E 011°09'0 0.0
2016-Apr-26 08:33N 58°11' E 011°09'0 0.0
2016-Apr-26 07:33N 58°11' E 011°09'3 2.7
2016-Apr-26 06:33N 58°11' E 011°04'1111.4
2016-Apr-26 05:33N 58°06' E 010°45'1211.9
2016-Apr-26 04:33N 58°01' E 010°24'21212.4
2016-Apr-25 11:33N 55°24' E 006°05'1312.7
2016-Apr-25 10:32N 55°14' E 005°52'8211.8
2016-Apr-25 03:33N 54°03' E 004°39'12210.1
2016-Apr-24 15:25N 52°08' E 003°34'1011.7
2016-Apr-24 14:34N 52°03' E 003°49'8 8.0
2016-Apr-24 13:33N 52°00' E 004°01'9 8.6
2016-Apr-24 12:34N 51°55' E 004°13'0 0.1
2016-Apr-24 11:31N 51°55' E 004°13'0 0.0
2016-Apr-24 10:31N 51°55' E 004°13'0 0.0
2016-Apr-24 09:28N 51°55' E 004°13'0 0.0
2016-Apr-24 08:31N 51°55' E 004°13'0 0.0
2016-Apr-24 07:31N 51°55' E 004°13'0 0.0
2016-Apr-24 06:28N 51°55' E 004°13'0 0.0
2016-Apr-24 05:31N 51°55' E 004°13'0 0.0
2016-Apr-24 04:31N 51°55' E 004°13'0 0.0
2016-Apr-24 03:28N 51°55' E 004°13'0 0.0
2016-Apr-24 02:31N 51°55' E 004°13'0 0.0
2016-Apr-24 01:31N 51°55' E 004°13'0 0.0
2016-Apr-24 00:28N 51°55' E 004°13'0 0.0
2016-Apr-23 23:31N 51°55' E 004°13'0 0.0
2016-Apr-23 22:28N 51°55' E 004°13'0 0.0
2016-Apr-23 21:31N 51°55' E 004°13'0 0.0
2016-Apr-23 20:28N 51°55' E 004°13'  
Track history (hours):
 
Tides and Currents Weather Stations Pressure Air Temp Water Temp Dewpoint Dewpoint Depression Visibility Wind Speed Wind Dir Waves Ship Positions

Pink Coral

Last reported at 2016-May-03 19:32 UTC. Time now 2016-May-03 20:10 UTC.
Position N 51°55' E 004°13'.

Length 183 m; draft 12.4 m.

Type: Ship (hazmat cat A). MMSI: 249344000.

Date/timePositionNaut miles runAvg speedWind from/ knotsBaromVisibWave heightAir tempDewpointWater temp
2016-May-03 19:32N 51°55' E 004°13'0 0.0
2016-May-03 18:32N 51°55' E 004°13'0 0.0
2016-May-03 17:32N 51°55' E 004°13'0 0.0
2016-May-03 16:32N 51°55' E 004°13'0 0.0
2016-May-03 15:32N 51°55' E 004°13'0 0.0
2016-May-03 14:32N 51°55' E 004°13'0 0.0
2016-May-03 13:32N 51°55' E 004°13'0 0.0
2016-May-03 12:29N 51°55' E 004°13'0 0.0
2016-May-03 11:32N 51°55' E 004°13'0 0.0
2016-May-03 10:32N 51°55' E 004°13'0 0.0
2016-May-03 09:32N 51°55' E 004°13'0 0.0
2016-May-03 08:32N 51°55' E 004°13'0 0.0
2016-May-03 07:32N 51°55' E 004°13'0 0.0
2016-May-03 06:32N 51°55' E 004°13'0 0.0
2016-May-03 05:32N 51°55' E 004°13'0 0.0
2016-May-03 04:32N 51°55' E 004°13'0 0.0
2016-May-03 03:32N 51°55' E 004°13'0 0.0
2016-May-03 02:32N 51°55' E 004°13'0 0.0
2016-May-03 01:32N 51°55' E 004°13'0 0.0
2016-May-03 00:30N 51°55' E 004°13'2 1.6
2016-May-02 23:33N 51°56' E 004°11'9 9.3
2016-May-02 22:33N 52°00' E 003°57'7 7.4
2016-May-02 21:33N 52°02' E 003°46'2811.5
2016-May-02 19:10N 52°20' E 003°12'813.1
2016-May-02 18:33N 52°28' E 003°12'14812.1
2016-May-02 06:20N 54°42' E 004°59'1012.6
2016-May-02 05:32N 54°51' E 005°07'1212.5
2016-May-02 04:32N 55°02' E 005°17'3812.7
2016-May-02 01:32N 55°36' E 005°49'1312.8
2016-May-02 00:33N 55°47' E 005°59'18912.4
2016-May-01 09:21N 57°57' E 010°11'1012.8
2016-May-01 08:33N 58°01' E 010°28'1312.7
2016-May-01 07:33N 58°08' E 010°48'1212.3
2016-May-01 06:33N 58°15' E 011°07'9 8.9
2016-May-01 05:33N 58°19' E 011°22'3 2.8
2016-May-01 04:33N 58°21' E 011°26'0 0.0
2016-May-01 03:33N 58°21' E 011°26'0 0.0
2016-May-01 02:33N 58°21' E 011°26'0 0.0
2016-May-01 01:33N 58°21' E 011°26'0 0.0
2016-May-01 00:33N 58°21' E 011°26'0 0.0
2016-Apr-30 23:33N 58°21' E 011°26'0 0.0
2016-Apr-30 22:33N 58°21' E 011°26'0 0.0
2016-Apr-30 21:33N 58°21' E 011°26'0 0.0
2016-Apr-30 20:33N 58°21' E 011°26'0 0.0
2016-Apr-30 19:33N 58°21' E 011°26'0 0.0
2016-Apr-30 18:33N 58°21' E 011°26'0 0.0
2016-Apr-30 17:30N 58°21' E 011°26'0 0.0
2016-Apr-30 16:33N 58°21' E 011°26'0 0.0
2016-Apr-30 15:30N 58°21' E 011°26'0 0.0
2016-Apr-30 14:30N 58°21' E 011°26'0 0.0
2016-Apr-30 13:33N 58°21' E 011°26'0 0.0
2016-Apr-30 12:33N 58°21' E 011°26'0 0.0
2016-Apr-30 11:33N 58°21' E 011°26'0 0.0
2016-Apr-30 10:33N 58°21' E 011°26'0 0.0
2016-Apr-30 09:24N 58°21' E 011°26'0 0.0
2016-Apr-30 08:33N 58°21' E 011°26'0 0.0
2016-Apr-30 07:33N 58°21' E 011°26'0 0.0
2016-Apr-30 06:33N 58°21' E 011°26'0 0.0
2016-Apr-30 05:33N 58°21' E 011°26'0 0.0
2016-Apr-30 04:33N 58°21' E 011°26'0 0.0
2016-Apr-30 03:33N 58°21' E 011°26'0 0.0
2016-Apr-30 02:30N 58°21' E 011°26'0 0.0
2016-Apr-30 01:33N 58°21' E 011°26'0 0.0
2016-Apr-30 00:33N 58°21' E 011°26'0 0.0
2016-Apr-29 23:33N 58°21' E 011°26'0 0.0
2016-Apr-29 22:33N 58°21' E 011°26'0 0.0
2016-Apr-29 21:33N 58°21' E 011°26'0 0.0
2016-Apr-29 20:33N 58°21' E 011°26'0 0.0
2016-Apr-29 19:33N 58°21' E 011°26'0 0.0
2016-Apr-29 18:33N 58°21' E 011°26'0 0.0
2016-Apr-29 17:33N 58°21' E 011°26'0 0.0
2016-Apr-29 16:33N 58°21' E 011°26'0 0.0
2016-Apr-29 15:33N 58°21' E 011°26'0 0.0
2016-Apr-29 14:33N 58°21' E 011°26'0 0.0
2016-Apr-29 13:33N 58°21' E 011°26'0 0.0
2016-Apr-29 12:33N 58°21' E 011°26'5 5.4
2016-Apr-29 11:33N 58°18' E 011°18'7 6.9
2016-Apr-29 10:33N 58°12' E 011°11'1 1.0
2016-Apr-29 09:31N 58°11' E 011°10'0 0.0
2016-Apr-29 08:31N 58°11' E 011°10'0 0.0
2016-Apr-29 07:31N 58°11' E 011°10'0 0.0
2016-Apr-29 06:31N 58°11' E 011°10'0 0.0
2016-Apr-29 05:31N 58°11' E 011°10'0 0.0
2016-Apr-29 04:31N 58°11' E 011°10'0 0.0
2016-Apr-29 03:31N 58°11' E 011°10'0 0.0
2016-Apr-29 02:31N 58°11' E 011°10'0 0.0
2016-Apr-29 01:31N 58°11' E 011°10'0 0.0
2016-Apr-29 00:31N 58°11' E 011°10'0 0.0
2016-Apr-28 23:31N 58°11' E 011°10'0 0.1
2016-Apr-28 22:31N 58°11' E 011°10'0 0.1
2016-Apr-28 21:31N 58°11' E 011°10'0 0.0
2016-Apr-28 20:31N 58°11' E 011°10'0 0.0
2016-Apr-28 19:31N 58°11' E 011°10'0 0.0
2016-Apr-28 18:31N 58°11' E 011°10'0 0.0
2016-Apr-28 17:31N 58°11' E 011°10'0 0.0
2016-Apr-28 16:31N 58°11' E 011°10'0 0.0
2016-Apr-28 15:31N 58°11' E 011°10'0 0.0
2016-Apr-28 14:31N 58°11' E 011°10'0 0.0
2016-Apr-28 13:31N 58°11' E 011°10'0 0.0
2016-Apr-28 12:31N 58°11' E 011°10'0 0.0
2016-Apr-28 11:31N 58°11' E 011°10'0 0.0
2016-Apr-28 10:31N 58°11' E 011°10'0 0.0
2016-Apr-28 09:31N 58°11' E 011°10'0 0.0
2016-Apr-28 08:31N 58°11' E 011°09'0 0.0
2016-Apr-28 07:31N 58°11' E 011°09'0 0.1
2016-Apr-28 06:31N 58°11' E 011°10'0 0.1
2016-Apr-28 05:31N 58°11' E 011°10'0 0.0
2016-Apr-28 04:31N 58°11' E 011°10'0 0.0
2016-Apr-28 03:31N 58°11' E 011°10'0 0.0
2016-Apr-28 02:31N 58°11' E 011°10'0 0.0
2016-Apr-28 01:31N 58°11' E 011°10'0 0.0
2016-Apr-28 00:31N 58°11' E 011°10'0 0.0
2016-Apr-27 23:31N 58°11' E 011°10'0 0.0
2016-Apr-27 22:31N 58°11' E 011°10'0 0.1
2016-Apr-27 21:33N 58°11' E 011°09'0 0.1
2016-Apr-27 20:31N 58°11' E 011°09'0 0.0
2016-Apr-27 19:31N 58°11' E 011°09'0 0.0
2016-Apr-27 18:31N 58°11' E 011°09'0 0.1
2016-Apr-27 17:31N 58°11' E 011°10'0 0.0
2016-Apr-27 16:31N 58°11' E 011°10'0 0.0
2016-Apr-27 15:31N 58°11' E 011°09'0 0.0
2016-Apr-27 14:31N 58°11' E 011°09'0 0.1
2016-Apr-27 13:31N 58°11' E 011°09'0 0.1
2016-Apr-27 12:31N 58°11' E 011°09'0 0.1
2016-Apr-27 11:31N 58°11' E 011°09'0 0.1
2016-Apr-27 10:31N 58°11' E 011°10'0 0.0
2016-Apr-27 09:31N 58°11' E 011°10'0 0.0
2016-Apr-27 08:28N 58°11' E 011°09'0 0.1
2016-Apr-27 07:31N 58°11' E 011°09'0 0.0
2016-Apr-27 06:31N 58°11' E 011°09'0 0.0
2016-Apr-27 05:31N 58°11' E 011°09'0 0.0
2016-Apr-27 04:31N 58°11' E 011°09'0 0.0
2016-Apr-27 03:31N 58°11' E 011°09'0 0.0
2016-Apr-27 02:31N 58°11' E 011°09'0 0.0
2016-Apr-27 01:31N 58°11' E 011°09'0 0.0
2016-Apr-27 00:31N 58°11' E 011°09'0 0.0
2016-Apr-26 23:31N 58°11' E 011°09'0 0.0
2016-Apr-26 22:31N 58°11' E 011°09'0 0.0
2016-Apr-26 21:31N 58°11' E 011°09'0 0.0
2016-Apr-26 20:31N 58°11' E 011°09'0 0.0
2016-Apr-26 19:31N 58°11' E 011°09'0 0.0
2016-Apr-26 18:31N 58°11' E 011°09'0 0.0
2016-Apr-26 17:31N 58°11' E 011°09'0 0.0
2016-Apr-26 16:31N 58°11' E 011°09'0 0.0
2016-Apr-26 15:31N 58°11' E 011°09'0 0.0
2016-Apr-26 14:31N 58°11' E 011°09'0 0.0
2016-Apr-26 13:31N 58°11' E 011°09'0 0.0
2016-Apr-26 12:31N 58°11' E 011°09'0 0.0
2016-Apr-26 11:31N 58°11' E 011°09'0 0.0
2016-Apr-26 10:33N 58°11' E 011°09'0 0.0
2016-Apr-26 09:33N 58°11' E 011°09'0 0.0
2016-Apr-26 08:33N 58°11' E 011°09'0 0.0
2016-Apr-26 07:33N 58°11' E 011°09'3 2.7
2016-Apr-26 06:33N 58°11' E 011°04'1111.4
2016-Apr-26 05:33N 58°06' E 010°45'1211.9
2016-Apr-26 04:33N 58°01' E 010°24'21212.4
2016-Apr-25 11:33N 55°24' E 006°05'1312.7
2016-Apr-25 10:32N 55°14' E 005°52'8211.8
2016-Apr-25 03:33N 54°03' E 004°39'12210.1
2016-Apr-24 15:25N 52°08' E 003°34'1011.7
2016-Apr-24 14:34N 52°03' E 003°49'8 8.0
2016-Apr-24 13:33N 52°00' E 004°01'9 8.6
2016-Apr-24 12:34N 51°55' E 004°13'0 0.1
2016-Apr-24 11:31N 51°55' E 004°13'0 0.0
2016-Apr-24 10:31N 51°55' E 004°13'0 0.0
2016-Apr-24 09:28N 51°55' E 004°13'0 0.0
2016-Apr-24 08:31N 51°55' E 004°13'0 0.0
2016-Apr-24 07:31N 51°55' E 004°13'0 0.0
2016-Apr-24 06:28N 51°55' E 004°13'0 0.0
2016-Apr-24 05:31N 51°55' E 004°13'0 0.0
2016-Apr-24 04:31N 51°55' E 004°13'0 0.0
2016-Apr-24 03:28N 51°55' E 004°13'0 0.0
2016-Apr-24 02:31N 51°55' E 004°13'0 0.0
2016-Apr-24 01:31N 51°55' E 004°13'0 0.0
2016-Apr-24 00:28N 51°55' E 004°13'0 0.0
2016-Apr-23 23:31N 51°55' E 004°13'0 0.0
2016-Apr-23 22:28N 51°55' E 004°13'0 0.0
2016-Apr-23 21:31N 51°55' E 004°13'0 0.0
2016-Apr-23 20:28N 51°55' E 004°13'  

Dump ship's entire track history